Time;durP1;ratioP1;P1;durP2;ratioP2;P2;SDS_P1;SDS_P2;PMS_P1;PMS_P2;Temp;Humidity;BMP_temperature;BMP_pressure;BME280_temperature;BME280_humidity;BME280_pressure;Samples;Min_cycle;Max_cycle;Signal;HPM_P1;HPM_P2
2023/09/04 00:00:30;;;;;;;10.35;4.35;;;;;;;22.84;72.50;100265.75;5047143;28;20028;-79
2023/09/04 00:02:55;;;;;;;8.98;4.43;;;;;;;22.75;73.00;100275.56;5046479;28;20043;-77
2023/09/04 00:05:20;;;;;;;11.95;4.13;;;;;;;22.43;73.06;100205.91;5047800;28;20051;-77
2023/09/04 00:07:46;;;;;;;7.55;4.70;;;;;;;22.88;73.97;100264.78;5050412;28;20056;-78
2023/09/04 00:10:12;;;;;;;8.02;4.22;;;;;;;22.65;75.55;100229.22;5080531;28;20028;-77
2023/09/04 00:12:38;;;;;;;9.27;3.97;;;;;;;22.89;77.03;100271.78;5087857;28;20024;-76
2023/09/04 00:15:04;;;;;;;11.48;4.25;;;;;;;22.83;79.52;100243.84;5090230;28;20110;-80
2023/09/04 00:17:30;;;;;;;9.20;3.45;;;;;;;22.64;78.40;100201.16;5090399;28;20111;-78
2023/09/04 00:19:56;;;;;;;10.18;4.60;;;;;;;22.53;80.14;100246.09;5090357;28;20103;-77
2023/09/04 00:22:22;;;;;;;10.95;3.85;;;;;;;21.75;82.89;100193.72;5090058;28;20069;-77
2023/09/04 00:24:47;;;;;;;9.10;4.22;;;;;;;21.71;85.54;100244.59;5090160;28;20021;-76
2023/09/04 00:27:13;;;;;;;6.97;4.47;;;;;;;21.58;87.75;100233.38;5089690;28;20012;-80
2023/09/04 00:29:38;;;;;;;8.93;4.43;;;;;;;21.48;88.55;100219.44;5072042;28;20028;-79
2023/09/04 00:32:05;;;;;;;16.40;5.00;;;;;;;21.30;89.44;100193.41;5090110;28;20031;-80
2023/09/04 00:34:31;;;;;;;8.23;4.47;;;;;;;21.58;89.12;100220.25;5090206;28;20085;-78
2023/09/04 00:36:57;;;;;;;6.32;4.25;;;;;;;21.73;88.53;100198.16;5089790;28;20020;-79
2023/09/04 00:39:23;;;;;;;7.78;4.15;;;;;;;21.88;87.92;100209.31;5071900;28;20062;-82
2023/09/04 00:41:49;;;;;;;7.40;4.30;;;;;;;21.84;87.43;100211.13;5055314;28;20051;-82
2023/09/04 00:44:15;;;;;;;11.38;4.45;;;;;;;21.94;87.95;100204.88;5090175;28;20674;-80
2023/09/04 00:46:43;;;;;;;6.13;3.97;;;;;;;22.16;87.82;100240.47;5071880;28;20392;-79
2023/09/04 00:49:10;;;;;;;6.40;3.95;;;;;;;22.10;87.94;100234.41;5089679;28;20102;-77
2023/09/04 00:51:36;;;;;;;8.80;4.40;;;;;;;22.09;89.37;100250.22;5071671;28;20028;-77
2023/09/04 00:54:03;;;;;;;10.27;4.85;;;;;;;21.89;84.25;100269.75;5090078;28;20040;-79
2023/09/04 00:56:29;;;;;;;10.60;4.70;;;;;;;21.78;82.73;100276.91;5050277;28;20086;-82
2023/09/04 00:58:55;;;;;;;9.85;4.38;;;;;;;21.70;81.52;100289.28;5066548;28;20552;-80
2023/09/04 01:01:21;;;;;;;11.25;4.57;;;;;;;21.57;82.65;100278.91;5067072;28;20028;-80
2023/09/04 01:03:46;;;;;;;6.43;4.30;;;;;;;21.54;83.29;100265.75;5060280;28;20044;-83
2023/09/04 01:06:13;;;;;;;9.73;4.63;;;;;;;21.54;82.86;100262.28;5066877;28;20040;-79
2023/09/04 01:08:39;;;;;;;7.88;4.18;;;;;;;21.59;81.90;100265.75;5064446;28;20068;-79
2023/09/04 01:11:26;;;;;;;10.70;4.75;;;;;;;21.67;82.18;100269.16;5066875;28;20523;-79
2023/09/04 01:13:53;;;;;;;10.40;5.07;;;;;;;21.72;82.46;100264.72;5049330;28;20039;-76
2023/09/04 01:16:20;;;;;;;11.93;5.60;;;;;;;21.73;83.19;100263.84;5067428;28;20078;-75
2023/09/04 01:18:47;;;;;;;9.98;5.82;;;;;;;21.36;83.86;100197.69;5070866;28;20040;-75
2023/09/04 01:21:13;;;;;;;9.73;4.82;;;;;;;21.74;85.35;100262.94;5070702;28;20075;-78
2023/09/04 01:23:38;;;;;;;11.65;5.45;;;;;;;21.68;85.75;100247.22;5070783;28;20068;-78
2023/09/04 01:26:06;;;;;;;10.00;6.00;;;;;;;21.79;85.92;100274.28;5070408;28;20048;-78
2023/09/04 01:28:46;;;;;;;15.55;6.00;;;;;;;21.77;86.24;100262.00;5091837;28;20062;-77
2023/09/04 01:31:57;;;;;;;18.92;6.72;;;;;;;21.80;86.21;100259.38;5074345;28;20110;-79
2023/09/04 01:34:29;;;;;;;11.38;6.18;;;;;;;21.47;86.44;100199.31;4986818;28;20069;-80
2023/09/04 01:36:57;;;;;;;16.55;6.80;;;;;;;21.64;86.60;100237.66;4980207;28;20035;-76
2023/09/04 01:39:23;;;;;;;12.65;6.22;;;;;;;21.72;86.45;100246.34;4982039;28;20057;-78
2023/09/04 01:41:50;;;;;;;15.25;6.00;;;;;;;21.74;85.83;100249.78;4982043;28;20042;-75
2023/09/04 01:44:15;;;;;;;17.05;6.35;;;;;;;21.77;85.66;100241.88;4980186;28;20097;-75
2023/09/04 01:46:41;;;;;;;15.23;6.55;;;;;;;21.71;85.61;100218.31;4981901;28;20034;-75
2023/09/04 01:49:07;;;;;;;11.32;6.35;;;;;;;21.78;85.47;100248.88;4981364;28;20047;-77
2023/09/04 01:51:33;;;;;;;10.45;6.63;;;;;;;21.76;85.55;100229.63;4980143;28;20053;-76
2023/09/04 01:53:58;;;;;;;6.90;4.90;;;;;;;21.80;84.28;100222.56;4974212;28;20050;-76
2023/09/04 01:56:23;;;;;;;10.02;5.00;;;;;;;21.75;84.83;100229.66;4978734;28;20030;-76
2023/09/04 01:58:49;;;;;;;9.23;4.72;;;;;;;21.62;84.19;100221.94;4977031;28;20047;-76
2023/09/04 02:01:14;;;;;;;6.32;4.47;;;;;;;21.50;84.15;100206.28;4989635;28;20068;-76
2023/09/04 02:03:42;;;;;;;7.18;5.05;;;;;;;21.61;83.66;100233.31;4986393;28;20106;-76
2023/09/04 02:06:08;;;;;;;7.28;4.95;;;;;;;21.23;84.96;100154.97;5013800;28;20045;-76
2023/09/04 02:08:33;;;;;;;8.20;4.78;;;;;;;21.65;85.01;100228.91;4993915;28;20030;-77
2023/09/04 02:10:59;;;;;;;6.63;4.15;;;;;;;21.61;83.52;100214.06;5018731;28;20031;-77
2023/09/04 02:13:25;;;;;;;5.95;3.25;;;;;;;21.55;82.08;100211.50;5092880;28;20030;-76
2023/09/04 02:15:50;;;;;;;4.75;3.00;;;;;;;21.16;81.20;100146.31;5092857;28;20040;-78
2023/09/04 02:18:16;;;;;;;6.45;2.90;;;;;;;21.36;80.99;100195.97;5074155;28;20028;-76
2023/09/04 02:20:42;;;;;;;10.57;2.72;;;;;;;21.17;80.71;100167.28;5092674;28;20058;-76
2023/09/04 02:23:07;;;;;;;8.68;3.58;;;;;;;21.40;80.78;100212.53;5092551;28;20027;-77
2023/09/04 02:25:33;;;;;;;5.72;2.80;;;;;;;21.39;80.36;100222.16;5091917;28;20471;-77
2023/09/04 02:27:58;;;;;;;7.65;2.70;;;;;;;21.29;80.36;100205.63;5073264;28;20049;-75
2023/09/04 02:30:24;;;;;;;4.65;2.80;;;;;;;21.28;80.85;100211.81;5092484;28;20020;-76
2023/09/04 02:32:50;;;;;;;6.00;3.00;;;;;;;21.30;80.72;100211.78;5092303;28;20111;-77
2023/09/04 02:35:17;;;;;;;6.43;2.60;;;;;;;21.17;80.55;100188.28;5092284;28;20138;-75
2023/09/04 02:37:44;;;;;;;4.50;2.42;;;;;;;21.25;80.79;100206.56;5091973;28;20031;-75
2023/09/04 02:40:11;;;;;;;4.55;2.58;;;;;;;21.27;80.73;100215.31;5089357;28;20431;-80
2023/09/04 02:42:36;;;;;;;3.80;2.80;;;;;;;21.25;80.85;100197.84;5059109;28;20123;-77
2023/09/04 02:45:02;;;;;;;4.45;3.00;;;;;;;21.30;80.59;100203.91;5059657;28;20045;-78
2023/09/04 02:47:27;;;;;;;3.78;2.28;;;;;;;21.31;81.39;100205.66;5058041;28;20041;-77
2023/09/04 02:49:55;;;;;;;5.72;2.72;;;;;;;21.25;80.78;100197.84;5043015;28;20079;-76
2023/09/04 02:52:21;;;;;;;4.63;2.90;;;;;;;21.12;81.18;100179.59;5039812;28;20034;-75
2023/09/04 02:54:46;;;;;;;4.45;2.60;;;;;;;21.26;80.48;100197.81;5043046;28;20075;-75
2023/09/04 02:57:11;;;;;;;5.05;2.90;;;;;;;21.30;81.01;100198.66;5058046;28;20036;-76
2023/09/04 02:59:37;;;;;;;4.53;2.45;;;;;;;21.33;80.63;100201.22;5058009;28;20044;-77
2023/09/04 03:02:03;;;;;;;3.58;2.40;;;;;;;21.33;80.55;100202.13;5058139;28;20491;-76
2023/09/04 03:04:29;;;;;;;3.72;2.25;;;;;;;20.82;80.68;100121.31;5059614;28;20074;-76
2023/09/04 03:06:54;;;;;;;7.13;2.70;;;;;;;21.32;80.58;100205.63;5058225;28;20484;-77
2023/09/04 03:09:20;;;;;;;4.47;2.20;;;;;;;21.34;81.11;100205.59;5041749;28;20044;-75
2023/09/04 03:11:45;;;;;;;6.47;2.70;;;;;;;21.36;80.37;100195.97;5059814;28;20032;-74
2023/09/04 03:14:11;;;;;;;6.38;2.80;;;;;;;21.29;80.94;100184.63;5077792;28;20032;-76
2023/09/04 03:16:37;;;;;;;4.07;2.53;;;;;;;21.31;80.22;100177.63;5091337;28;20039;-76
2023/09/04 03:19:03;;;;;;;7.63;2.50;;;;;;;20.97;80.96;100122.03;5091123;28;20012;-77
2023/09/04 03:21:31;;;;;;;3.90;2.50;;;;;;;20.99;80.42;100112.38;5089148;28;20028;-78
2023/09/04 03:23:56;;;;;;;6.22;2.67;;;;;;;21.39;80.04;100185.41;5091020;28;20027;-75
2023/09/04 03:26:22;;;;;;;16.63;3.28;;;;;;;21.17;80.17;100141.03;5091423;28;20024;-78
2023/09/04 03:28:47;;;;;;;10.18;2.63;;;;;;;21.37;79.87;100171.44;5072613;28;20153;-78
2023/09/04 03:31:14;;;;;;;17.35;2.72;;;;;;;21.49;79.73;100189.63;5090814;28;20403;-82
2023/09/04 03:33:40;;;;;;;4.15;2.30;;;;;;;21.39;79.95;100180.16;5091024;28;20026;-78
2023/09/04 03:36:06;;;;;;;4.72;2.60;;;;;;;21.46;80.49;100181.81;5072832;28;20054;-82
2023/09/04 03:38:31;;;;;;;4.47;2.40;;;;;;;21.28;80.36;100164.53;5072018;28;20020;-80
2023/09/04 03:40:57;;;;;;;3.60;2.15;;;;;;;20.69;80.64;100072.47;5072898;28;20388;-80
2023/09/04 03:43:22;;;;;;;18.23;2.67;;;;;;;21.37;81.41;100197.69;5072561;28;20164;-81
2023/09/04 03:45:48;;;;;;;8.70;2.65;;;;;;;21.23;81.03;100175.97;5072294;28;20049;-80
2023/09/04 03:48:15;;;;;;;4.18;2.33;;;;;;;21.24;81.78;100191.69;5086993;28;20024;-84
2023/09/04 03:50:40;;;;;;;3.03;2.17;;;;;;;21.11;82.31;100177.84;5046011;28;20041;-82
2023/09/04 03:53:06;;;;;;;7.07;2.20;;;;;;;21.10;82.62;100194.50;5031066;28;20538;-85
2023/09/04 03:55:31;;;;;;;6.88;2.60;;;;;;;20.99;84.06;100189.34;5018320;28;20053;-80
2023/09/04 03:57:58;;;;;;;10.27;2.60;;;;;;;20.88;86.01;100183.34;5017279;28;20501;-80
2023/09/04 04:00:24;;;;;;;11.45;2.67;;;;;;;20.84;90.57;100208.75;5020701;28;20071;-80
2023/09/04 04:02:51;;;;;;;13.52;3.55;;;;;;;20.68;94.80;100209.75;4996038;28;20496;-83
2023/09/04 04:05:17;;;;;;;9.68;3.88;;;;;;;20.28;97.01;100189.94;4997478;28;20111;-80
2023/09/04 04:07:44;;;;;;;17.20;3.72;;;;;;;20.28;98.31;100197.81;4998802;28;20042;-81
2023/09/04 04:10:10;;;;;;;7.97;3.50;;;;;;;20.14;98.42;100213.66;4998564;28;20453;-79
2023/09/04 04:12:35;;;;;;;12.85;3.33;;;;;;;20.10;99.63;100214.56;4997002;28;20104;-78
2023/09/04 04:15:06;;;;;;;14.00;3.17;;;;;;;20.11;99.22;100216.31;4994507;28;20042;-79
2023/09/04 04:17:33;;;;;;;6.75;2.40;;;;;;;20.10;97.69;100217.19;4997572;28;20543;-78
2023/09/04 04:19:59;;;;;;;10.25;2.42;;;;;;;20.20;99.08;100212.75;4998951;28;20032;-81
2023/09/04 04:22:24;;;;;;;15.43;3.13;;;;;;;20.27;99.19;100243.25;4997721;28;20042;-80
2023/09/04 04:24:50;;;;;;;5.18;2.60;;;;;;;20.30;100.00;100237.13;4981812;28;20543;-80
2023/09/04 04:27:16;;;;;;;3.30;2.38;;;;;;;20.29;98.40;100238.03;5002805;28;20045;-78
2023/09/04 04:29:46;;;;;;;4.18;2.40;;;;;;;20.30;98.44;100237.13;5016663;28;20033;-79
2023/09/04 04:32:11;;;;;;;3.80;2.10;;;;;;;19.72;97.47;100126.56;5009180;28;20088;-80
2023/09/04 04:34:36;;;;;;;5.88;2.53;;;;;;;19.78;99.95;100191.13;5054580;28;20028;-81
2023/09/04 04:37:04;;;;;;;7.38;2.50;;;;;;;19.87;98.53;100230.41;5058101;28;20479;-80
2023/09/04 04:39:29;;;;;;;12.48;2.83;;;;;;;20.03;100.00;100231.19;5057411;28;20029;-82
2023/09/04 04:41:55;;;;;;;2.97;2.20;;;;;;;19.87;99.87;100228.63;5059623;28;20716;-81
2023/09/04 04:44:20;;;;;;;4.00;2.30;;;;;;;19.77;100.00;100228.69;5058217;28;20031;-80
2023/09/04 04:46:46;;;;;;;7.03;2.25;;;;;;;19.55;100.00;100242.75;5059277;28;20025;-81
2023/09/04 04:49:13;;;;;;;7.32;2.28;;;;;;;19.58;100.00;100238.34;5078115;28;20032;-80
2023/09/04 04:51:38;;;;;;;10.38;5.28;;;;;;;19.33;100.00;100246.31;5062031;28;20048;-78
2023/09/04 04:54:04;;;;;;;7.30;4.88;;;;;;;19.27;100.00;100235.84;5067676;28;20135;-79
2023/09/04 04:56:29;;;;;;;8.80;5.35;;;;;;;19.27;100.00;100238.47;5072176;28;20051;-79
2023/09/04 04:58:55;;;;;;;8.35;5.15;;;;;;;19.18;100.00;100242.84;5073319;28;20099;-81
2023/09/04 05:01:20;;;;;;;3.47;2.42;;;;;;;18.94;100.00;100208.88;5072444;28;20021;-79
2023/09/04 05:03:46;;;;;;;7.22;3.10;;;;;;;19.28;100.00;100245.41;5072038;28;20446;-80
2023/09/04 05:06:11;;;;;;;11.65;2.88;;;;;;;19.24;100.00;100245.44;5070547;28;20093;-78
2023/09/04 05:08:36;;;;;;;4.45;2.17;;;;;;;19.22;100.00;100248.94;5070965;28;20056;-77
2023/09/04 05:11:04;;;;;;;4.78;2.95;;;;;;;19.16;100.00;100244.56;5070531;28;20028;-80
2023/09/04 05:13:31;;;;;;;7.55;3.08;;;;;;;19.15;100.00;100266.41;5070130;28;20025;-80
2023/09/04 05:16:03;;;;;;;7.18;2.30;;;;;;;18.76;100.00;100242.84;5070595;28;20586;-80
2023/09/04 05:18:29;;;;;;;6.15;2.67;;;;;;;18.85;100.00;100252.44;5070531;28;20032;-79
2023/09/04 05:20:55;;;;;;;5.03;3.10;;;;;;;18.78;100.00;100255.06;5053889;28;20587;-80
2023/09/04 05:23:20;;;;;;;5.85;3.10;;;;;;;18.76;100.00;100240.22;5070841;28;20047;-80
2023/09/04 05:25:50;;;;;;;5.43;2.80;;;;;;;18.66;100.00;100237.63;5070322;28;20470;-80
2023/09/04 05:28:16;;;;;;;7.25;2.63;;;;;;;18.66;100.00;100237.63;5068043;28;20068;-80
2023/09/04 05:30:41;;;;;;;24.77;3.72;;;;;;;18.67;100.00;100245.47;5070543;28;20535;-82
2023/09/04 05:33:06;;;;;;;8.25;3.25;;;;;;;18.64;100.00;100239.38;5070904;28;20041;-83
2023/09/04 05:35:32;;;;;;;8.82;3.42;;;;;;;18.53;100.00;100234.13;5070150;28;20036;-81
2023/09/04 05:37:58;;;;;;;12.95;3.97;;;;;;;18.64;100.00;100249.81;5071137;28;20074;-81
2023/09/04 05:40:24;;;;;;;11.07;3.80;;;;;;;18.82;100.00;100260.28;5072634;28;20024;-80
2023/09/04 05:42:50;;;;;;;10.63;4.00;;;;;;;18.97;100.00;100248.13;5072760;28;20055;-80
2023/09/04 05:45:16;;;;;;;9.25;3.67;;;;;;;18.79;100.00;100235.88;5071635;28;20507;-81
2023/09/04 05:47:42;;;;;;;6.82;3.30;;;;;;;18.83;100.00;100251.56;5072481;28;20161;-81
2023/09/04 05:50:09;;;;;;;10.45;4.00;;;;;;;18.76;100.00;100221.91;5072822;28;20021;-81
2023/09/04 05:52:35;;;;;;;6.32;3.60;;;;;;;19.10;100.00;100251.56;5065894;28;20016;-79
2023/09/04 05:55:01;;;;;;;4.68;3.10;;;;;;;18.90;100.00;100244.59;5070728;28;20040;-80
2023/09/04 05:57:26;;;;;;;5.25;3.15;;;;;;;18.96;100.00;100246.38;5071398;28;20025;-82
2023/09/04 05:59:52;;;;;;;10.82;3.65;;;;;;;18.87;100.00;100250.69;5070946;28;20021;-83
2023/09/04 06:02:17;;;;;;;11.50;3.50;;;;;;;18.91;100.00;100260.31;5071641;28;20472;-80
2023/09/04 06:04:43;;;;;;;5.82;3.55;;;;;;;18.81;100.00;100258.53;5072361;28;20032;-80
2023/09/04 06:07:10;;;;;;;8.07;2.85;;;;;;;18.64;100.00;100241.97;5071879;28;20496;-82
2023/09/04 06:09:37;;;;;;;6.50;3.15;;;;;;;18.89;100.00;100267.25;5068277;28;20027;-82
2023/09/04 06:12:03;;;;;;;21.10;3.03;;;;;;;18.92;100.00;100266.44;5071042;28;20016;-78
2023/09/04 06:14:29;;;;;;;8.90;2.70;;;;;;;18.72;100.00;100254.19;5070970;28;20032;-80
2023/09/04 06:16:54;;;;;;;5.00;2.65;;;;;;;18.86;100.00;100269.88;5065559;28;20029;-81
2023/09/04 06:19:19;;;;;;;6.45;2.30;;;;;;;18.81;100.00;100269.00;5073939;28;20040;-80
2023/09/04 06:21:45;;;;;;;4.22;2.30;;;;;;;18.83;100.00;100263.75;5071040;28;20027;-80
2023/09/04 06:24:11;;;;;;;11.05;2.58;;;;;;;18.86;100.00;100288.19;5070911;28;20472;-83
2023/09/04 06:26:36;;;;;;;4.25;2.50;;;;;;;18.92;100.00;100280.38;5047697;28;20033;-79
2023/09/04 06:29:01;;;;;;;2.92;2.08;;;;;;;18.79;100.00;100285.56;5049685;28;20492;-80
2023/09/04 06:31:27;;;;;;;5.63;2.75;;;;;;;18.53;100.00;100284.69;5049452;28;20048;-78
2023/09/04 06:33:53;;;;;;;7.15;2.85;;;;;;;18.48;100.00;100296.00;5049544;28;20021;-80
2023/09/04 06:36:19;;;;;;;5.07;2.83;;;;;;;18.50;100.00;100300.34;5047321;28;20037;-83
2023/09/04 06:38:44;;;;;;;7.95;2.90;;;;;;;18.59;100.00;100300.38;5031721;28;20025;-80
2023/09/04 06:41:09;;;;;;;14.38;3.70;;;;;;;18.56;100.00;100300.38;5049243;28;20554;-79
2023/09/04 06:43:35;;;;;;;5.93;2.97;;;;;;;18.18;100.00;100237.56;5047513;28;20859;-79
2023/09/04 06:46:02;;;;;;;7.05;3.75;;;;;;;18.52;100.00;100309.09;5047315;28;20052;-81
2023/09/04 06:48:28;;;;;;;4.53;3.08;;;;;;;18.38;100.00;100300.31;5049657;28;20082;-80
2023/09/04 06:50:53;;;;;;;4.15;3.20;;;;;;;18.46;100.00;100306.44;5049148;28;20021;-78
2023/09/04 06:53:19;;;;;;;8.55;3.80;;;;;;;18.39;100.00;100313.44;5027045;28;20542;-77
2023/09/04 06:55:47;;;;;;;10.05;4.70;;;;;;;18.24;100.00;100311.63;5025117;28;20120;-83
2023/09/04 06:58:14;;;;;;;8.75;4.28;;;;;;;18.20;100.00;100309.88;5063109;28;20140;-82
2023/09/04 07:00:39;;;;;;;5.93;3.92;;;;;;;18.06;100.00;100294.16;5068469;28;20036;-80
2023/09/04 07:03:05;;;;;;;5.97;4.10;;;;;;;18.10;100.00;100316.78;5073514;28;20017;-83
2023/09/04 07:05:31;;;;;;;8.13;4.70;;;;;;;18.13;100.00;100299.41;5064947;28;20056;-79
2023/09/04 07:07:59;;;;;;;8.45;4.13;;;;;;;17.85;100.00;100283.59;5066200;28;20556;-79
2023/09/04 07:10:25;;;;;;;9.05;4.72;;;;;;;17.78;100.00;100288.81;5070261;28;20033;-80
2023/09/04 07:12:51;;;;;;;9.50;4.78;;;;;;;17.87;100.00;100314.09;5069769;28;20040;-83
2023/09/04 07:15:17;;;;;;;7.22;4.68;;;;;;;17.88;100.00;100315.84;5069752;28;20064;-82
2023/09/04 07:17:42;;;;;;;8.40;4.90;;;;;;;17.83;100.00;100283.59;5070643;28;20082;-82
2023/09/04 07:20:08;;;;;;;9.27;4.90;;;;;;;17.86;100.00;100321.91;5068378;28;20648;-78
2023/09/04 07:22:33;;;;;;;14.18;5.80;;;;;;;17.69;100.00;100320.06;5069187;28;20044;-79
2023/09/04 07:24:59;;;;;;;6.53;5.13;;;;;;;17.70;100.00;100310.53;5069929;28;20037;-81
2023/09/04 07:27:26;;;;;;;8.45;5.53;;;;;;;17.81;100.00;100342.78;5069401;28;20542;-78
2023/09/04 07:29:52;;;;;;;8.85;5.03;;;;;;;17.72;100.00;100322.72;5069453;28;20040;-80
2023/09/04 07:32:17;;;;;;;8.77;5.22;;;;;;;17.89;100.00;100350.66;5070598;28;20024;-79
2023/09/04 07:34:43;;;;;;;8.35;5.60;;;;;;;17.83;100.00;100335.84;5068799;28;20032;-82
2023/09/04 07:37:08;;;;;;;7.50;5.05;;;;;;;17.98;100.00;100379.47;5070731;28;20557;-84
2023/09/04 07:39:34;;;;;;;7.20;5.07;;;;;;;17.81;100.00;100352.31;5069497;28;20519;-83
2023/09/04 07:42:00;;;;;;;7.85;4.97;;;;;;;17.79;100.00;100368.88;5077167;28;20042;-82
2023/09/04 07:44:25;;;;;;;7.72;5.57;;;;;;;17.69;100.00;100355.75;5075022;28;20028;-81
2023/09/04 07:46:51;;;;;;;8.55;5.65;;;;;;;17.83;100.00;100353.22;5070821;28;20082;-80
2023/09/04 07:49:19;;;;;;;10.20;6.50;;;;;;;17.50;100.00;100287.78;5066046;28;20119;-80
2023/09/04 07:51:46;;;;;;;10.18;6.05;;;;;;;17.81;100.00;100344.50;5057335;28;20067;-80
2023/09/04 07:54:11;;;;;;;9.25;5.95;;;;;;;17.81;100.00;100365.38;5070485;28;20531;-83
2023/09/04 07:56:37;;;;;;;7.72;5.13;;;;;;;17.73;100.00;100374.06;5052092;28;20025;-80
2023/09/04 07:59:04;;;;;;;6.65;4.32;;;;;;;17.40;100.00;100346.00;5052014;28;20078;-78
2023/09/04 08:01:30;;;;;;;7.45;4.30;;;;;;;17.57;100.00;100393.97;5068516;28;20058;-80
2023/09/04 08:03:56;;;;;;;8.32;4.63;;;;;;;17.55;100.00;100374.81;5051434;28;20573;-79
2023/09/04 08:06:22;;;;;;;7.55;5.20;;;;;;;17.64;100.00;100387.06;5069457;28;20055;-78
2023/09/04 08:08:48;;;;;;;8.02;5.55;;;;;;;17.59;100.00;100387.00;5047419;28;20045;-77
2023/09/04 08:11:14;;;;;;;8.65;5.47;;;;;;;17.80;100.00;100406.31;5066280;28;20537;-80
2023/09/04 08:13:40;;;;;;;7.18;4.88;;;;;;;17.78;100.00;100389.75;5050237;28;20036;-79
2023/09/04 08:16:05;;;;;;;7.40;5.53;;;;;;;17.71;100.00;100386.22;5067032;28;20429;-77
2023/09/04 08:18:31;;;;;;;7.75;4.82;;;;;;;17.50;100.00;100329.53;5067400;28;20393;-78
2023/09/04 08:20:58;;;;;;;9.57;4.45;;;;;;;17.79;100.00;100362.78;5067648;28;20029;-83
2023/09/04 08:23:24;;;;;;;6.78;4.75;;;;;;;17.85;100.00;100399.38;5064059;28;20033;-81
2023/09/04 08:25:58;;;;;;;6.88;4.30;;;;;;;17.99;100.00;100390.78;5067183;28;20094;-84
2023/09/04 08:28:23;;;;;;;14.27;4.78;;;;;;;17.92;100.00;100395.94;5067412;28;20051;-79
2023/09/04 08:30:49;;;;;;;7.22;4.50;;;;;;;17.94;100.00;100386.41;5067105;28;20124;-79
2023/09/04 08:33:14;;;;;;;17.23;5.28;;;;;;;18.01;100.00;100382.09;5067229;28;20047;-81
2023/09/04 08:36:00;;;;;;;6.82;4.45;;;;;;;17.88;100.00;100377.63;5067099;28;20419;-82
2023/09/04 08:38:26;;;;;;;9.63;3.83;;;;;;;17.98;100.00;100384.69;5050093;28;20040;-81
2023/09/04 08:40:56;;;;;;;7.32;4.40;;;;;;;17.92;100.00;100387.25;5067009;28;20032;-84
2023/09/04 08:43:25;;;;;;;9.85;4.68;;;;;;;17.74;100.00;100377.53;5047987;28;20040;-78
2023/09/04 08:45:53;;;;;;;9.32;4.70;;;;;;;17.89;100.00;100374.16;5032106;28;20475;-82
2023/09/04 08:48:31;;;;;;;7.03;4.28;;;;;;;17.86;100.00;100372.41;5031457;28;20052;-81
2023/09/04 08:51:00;;;;;;;5.35;4.22;;;;;;;17.44;100.00;100269.47;5012609;28;20041;-78
2023/09/04 08:53:26;;;;;;;8.30;4.60;;;;;;;17.96;100.00;100365.53;5016429;28;20058;-77
2023/09/04 08:55:53;;;;;;;8.60;4.22;;;;;;;18.04;100.00;100365.53;5024854;28;20586;-76
2023/09/04 08:58:20;;;;;;;6.72;4.35;;;;;;;18.17;100.00;100354.28;5006325;28;20056;-77
2023/09/04 09:00:49;;;;;;;10.13;4.68;;;;;;;18.35;100.00;100353.47;4996232;28;20049;-80
2023/09/04 09:03:16;;;;;;;7.80;4.45;;;;;;;18.33;100.00;100343.88;4976889;28;20073;-80
2023/09/04 09:05:46;;;;;;;8.68;4.28;;;;;;;18.27;100.00;100326.47;4984499;28;20074;-80
2023/09/04 09:08:11;;;;;;;7.15;3.80;;;;;;;18.57;100.00;100362.25;4977843;28;20046;-80
2023/09/04 09:10:37;;;;;;;6.13;4.00;;;;;;;18.47;100.00;100357.88;4973858;28;20035;-77
2023/09/04 09:13:03;;;;;;;7.65;4.85;;;;;;;18.67;100.00;100349.22;4985457;28;20038;-78
2023/09/04 09:15:32;;;;;;;11.02;5.03;;;;;;;18.21;100.00;100314.22;4985778;28;20565;-77
2023/09/04 09:17:58;;;;;;;13.43;4.35;;;;;;;18.41;100.00;100329.97;4975906;28;20089;-79
2023/09/04 09:20:33;;;;;;;7.75;4.50;;;;;;;18.66;100.00;100335.25;4986514;28;20057;-76
2023/09/04 09:23:00;;;;;;;7.38;4.50;;;;;;;18.71;100.00;100338.72;5000920;28;20057;-78
2023/09/04 09:25:26;;;;;;;5.40;4.22;;;;;;;18.96;100.00;100349.25;5026550;28;20052;-75
2023/09/04 09:27:58;;;;;;;6.07;4.00;;;;;;;18.53;100.00;100261.16;5026776;28;20404;-79
2023/09/04 09:30:23;;;;;;;7.97;3.80;;;;;;;19.03;100.00;100329.22;5026847;28;20459;-79
2023/09/04 09:32:54;;;;;;;6.57;3.85;;;;;;;18.97;100.00;100303.06;5057099;28;20070;-80
2023/09/04 09:35:20;;;;;;;5.90;4.35;;;;;;;19.16;100.00;100320.47;5051081;28;20024;-79
2023/09/04 09:37:46;;;;;;;7.80;4.40;;;;;;;18.98;100.00;100262.91;5054637;28;20149;-76
2023/09/04 09:40:14;;;;;;;6.45;4.10;;;;;;;19.57;100.00;100334.38;5072516;28;20035;-80
2023/09/04 09:42:41;;;;;;;5.47;3.20;;;;;;;19.54;100.00;100321.31;5073441;28;20029;-79
2023/09/04 09:45:07;;;;;;;5.30;3.72;;;;;;;19.96;100.00;100350.91;5072827;28;20017;-76
2023/09/04 09:47:33;;;;;;;8.98;4.10;;;;;;;20.01;100.00;100348.25;5072644;28;20032;-77
2023/09/04 09:49:59;;;;;;;5.93;3.67;;;;;;;20.32;100.00;100361.22;5054404;28;20020;-78
2023/09/04 09:52:24;;;;;;;4.97;3.28;;;;;;;20.14;100.00;100342.06;5055111;28;20101;-80
2023/09/04 09:54:50;;;;;;;4.80;3.70;;;;;;;19.80;100.00;100315.09;5070243;28;20131;-81
2023/09/04 09:57:17;;;;;;;4.97;3.58;;;;;;;20.17;100.00;100343.81;5075503;28;20024;-78
2023/09/04 09:59:45;;;;;;;4.65;3.45;;;;;;;20.46;100.00;100334.91;5091304;28;20525;-76
2023/09/04 10:02:19;;;;;;;5.30;3.20;;;;;;;20.31;100.00;100344.63;5092284;28;20042;-81
2023/09/04 10:04:45;;;;;;;6.85;3.90;;;;;;;20.12;100.00;100319.38;5092434;28;20483;-77
2023/09/04 10:07:18;;;;;;;5.97;3.95;;;;;;;19.59;100.00;100234.84;5070833;28;20020;-77
2023/09/04 10:09:45;;;;;;;7.38;4.22;;;;;;;20.38;100.00;100300.03;5079849;28;20032;-81
2023/09/04 10:12:33;;;;;;;4.72;3.20;;;;;;;20.52;100.00;100317.41;5074461;28;20479;-85
2023/09/04 10:15:01;;;;;;;7.25;4.25;;;;;;;20.72;100.00;100316.41;5092309;28;20082;-84
2023/09/04 10:17:42;;;;;;;5.38;3.67;;;;;;;20.91;100.00;100318.88;5092777;28;20078;-82
2023/09/04 10:20:10;;;;;;;7.43;3.90;;;;;;;20.85;100.00;100304.09;5074938;28;20039;-81
2023/09/04 10:22:43;;;;;;;6.15;3.75;;;;;;;21.04;100.00;100278.53;5049655;28;20037;-81
2023/09/04 10:25:15;;;;;;;5.13;3.83;;;;;;;20.87;100.00;100293.56;5019993;28;20037;-81
2023/09/04 10:27:50;;;;;;;4.95;3.70;;;;;;;21.01;100.00;100289.94;5032372;28;20041;-77
2023/09/04 10:30:18;;;;;;;5.18;3.80;;;;;;;21.42;100.00;100306.19;5032366;28;20056;-80
2023/09/04 10:32:44;;;;;;;6.10;3.20;;;;;;;21.21;100.00;100302.03;5030668;28;20568;-81
2023/09/04 10:35:10;;;;;;;5.13;3.67;;;;;;;21.42;100.00;100297.41;5048190;28;20033;-80
2023/09/04 10:37:37;;;;;;;8.63;3.38;;;;;;;21.06;100.00;100294.25;5045107;28;20045;-83
2023/09/04 10:40:10;;;;;;;8.07;3.63;;;;;;;21.71;100.00;100302.38;5022431;28;20061;-83
2023/09/04 10:42:41;;;;;;;6.13;3.50;;;;;;;21.86;100.00;100316.22;5032166;28;20045;-83
2023/09/04 10:45:20;;;;;;;7.60;3.80;;;;;;;21.91;100.00;100319.69;5028926;28;20130;-86
2023/09/04 10:47:50;;;;;;;6.07;4.07;;;;;;;21.40;100.00;100300.06;5012393;28;20563;-81
2023/09/04 10:50:26;;;;;;;5.68;3.85;;;;;;;21.70;100.00;100321.66;5012334;28;20051;-83
2023/09/04 10:52:52;;;;;;;4.80;3.55;;;;;;;21.71;100.00;100318.16;5036729;28;20533;-79
2023/09/04 10:55:18;;;;;;;4.65;3.88;;;;;;;21.76;100.00;100297.09;5068491;28;20048;-82
2023/09/04 10:58:15;;;;;;;10.30;4.28;;;;;;;22.05;100.00;100323.00;5052396;28;20031;-81
2023/09/04 11:00:42;;;;;;;4.80;4.20;;;;;;;21.97;100.00;100319.59;4992224;28;20046;-78
2023/09/04 11:03:23;;;;;;;6.35;4.47;;;;;;;22.00;100.00;100311.66;5008712;28;20029;-84
2023/09/04 11:06:05;;;;;;;7.00;4.30;;;;;;;21.87;100.00;100262.78;4992587;28;20038;-79
2023/09/04 11:08:35;;;;;;;6.18;4.40;;;;;;;22.12;100.00;100285.22;4992655;28;20410;-78
2023/09/04 11:11:03;;;;;;;6.15;4.35;;;;;;;21.87;100.00;100315.34;5008558;28;20451;-79
2023/09/04 11:13:32;;;;;;;6.38;4.47;;;;;;;21.88;100.00;100324.97;5008562;28;20058;-81
2023/09/04 11:16:02;;;;;;;6.80;4.35;;;;;;;21.83;100.00;100305.75;5008698;28;20054;-79
2023/09/04 11:18:28;;;;;;;;;;;;;;;21.88;100.00;100312.72;5009475;28;20041;-78